Lovetch, Bulgaria
Current Conditions -  °F | °C
As of 11:00 AM on Sunday 26 Oct 2014 (Local Time) from LBGO Reporting Station
Light Snow Light Snow  
Wind Chill: 28°   Ceiling: 3000
Heat Index: 34°   Visibility: 1.4mi
Dew Point: 34°   Wind: 7mph
Humidity: 100%   Direction: 290°WNW
Pressure: 30.42"   Gusts: NA
Location:  43.13°N, 24.72°E
Report Text: LBGO 260800Z 29003MPS 260V320 2300 -SN SCT004 BKN030 OVC040 01/01 Q1030 NOSIG R99/599291
Loading
Personal Weather Stations






























Interactive Weather Map
Tropical Storm Tracking
New forecast layout! Learn more

10-Day Weather Forecast

Advertisements
Track Severe Weather on mobile